Time;durP1;ratioP1;P1;durP2;ratioP2;P2;SDS_P1;SDS_P2;PMS_P1;PMS_P2;Temp;Humidity;BMP_temperature;BMP_pressure;BME280_temperature;BME280_humidity;BME280_pressure;Samples;Min_cycle;Max_cycle;Signal;HPM_P1;HPM_P2
2024/01/02 00:01:20;;;;;;;136.15;81.13;;;6.70;99.90;;;;;;5081708;28;20029;-73
2024/01/02 00:03:48;;;;;;;136.50;81.90;;;6.70;99.90;;;;;;5069408;28;20055;-73
2024/01/02 00:06:16;;;;;;;137.75;81.30;;;6.60;99.90;;;;;;5074140;28;20035;-75
2024/01/02 00:08:43;;;;;;;135.70;82.50;;;6.80;99.90;;;;;;5070373;28;20471;-75
2024/01/02 00:11:12;;;;;;;137.35;82.45;;;7.00;99.90;;;;;;5095425;28;20032;-73
2024/01/02 00:13:39;;;;;;;135.85;83.57;;;6.90;99.90;;;;;;5075131;28;20477;-74
2024/01/02 00:16:07;;;;;;;133.40;78.78;;;6.70;99.90;;;;;;5079831;28;20046;-73
2024/01/02 00:18:34;;;;;;;145.80;89.10;;;6.70;99.90;;;;;;5076659;28;20056;-74
2024/01/02 00:21:02;;;;;;;147.45;83.93;;;6.80;99.90;;;;;;5076763;28;20036;-73
2024/01/02 00:23:30;;;;;;;141.13;83.88;;;6.70;99.90;;;;;;5078237;28;20028;-73
2024/01/02 00:25:57;;;;;;;142.57;87.57;;;6.80;99.90;;;;;;5080851;28;20036;-73
2024/01/02 00:28:25;;;;;;;147.30;91.40;;;6.80;99.90;;;;;;5081590;28;20048;-74
2024/01/02 00:30:52;;;;;;;145.35;85.95;;;6.70;99.90;;;;;;5081718;28;20040;-74
2024/01/02 00:33:20;;;;;;;164.23;99.65;;;6.80;99.90;;;;;;5084508;28;20164;-72
2024/01/02 00:35:47;;;;;;;190.93;115.40;;;6.90;99.90;;;;;;5081624;28;20479;-73
2024/01/02 00:38:14;;;;;;;200.70;116.38;;;6.80;99.90;;;;;;5076235;28;20032;-73
2024/01/02 00:40:42;;;;;;;200.77;115.90;;;6.80;99.90;;;;;;5081858;28;20115;-73
2024/01/02 00:43:09;;;;;;;192.68;116.68;;;6.70;99.90;;;;;;5082900;28;20766;-73
2024/01/02 00:45:36;;;;;;;203.93;120.93;;;6.80;99.90;;;;;;5080881;28;20039;-73
2024/01/02 00:48:04;;;;;;;202.65;121.97;;;6.70;99.90;;;;;;5081292;28;20117;-73
2024/01/02 00:50:32;;;;;;;215.65;125.50;;;6.70;99.90;;;;;;5077847;28;20111;-73
2024/01/02 00:53:03;;;;;;;233.02;134.32;;;6.80;99.90;;;;;;5077075;28;20106;-74
2024/01/02 00:55:32;;;;;;;246.23;141.15;;;6.90;99.90;;;;;;5079145;28;20024;-73
2024/01/02 00:57:59;;;;;;;234.30;139.18;;;6.80;99.90;;;;;;5079107;28;20040;-71
2024/01/02 01:00:26;;;;;;;212.63;130.80;;;6.70;99.90;;;;;;5076614;28;20081;-71
2024/01/02 01:02:54;;;;;;;204.82;124.07;;;6.60;99.90;;;;;;5080270;28;20032;-71
2024/01/02 01:05:21;;;;;;;204.45;123.57;;;6.60;99.90;;;;;;5083034;28;20540;-73
2024/01/02 01:07:49;;;;;;;224.63;130.85;;;6.70;99.90;;;;;;5082913;28;20040;-72
2024/01/02 01:10:16;;;;;;;227.38;131.98;;;6.70;99.90;;;;;;5081157;28;20040;-73
2024/01/02 01:12:45;;;;;;;217.00;132.40;;;6.70;99.90;;;;;;5082218;28;20123;-74
2024/01/02 01:15:12;;;;;;;209.05;127.30;;;6.70;99.90;;;;;;5075178;28;20056;-74
2024/01/02 01:17:39;;;;;;;213.80;127.70;;;6.50;99.90;;;;;;5080552;28;20040;-73
2024/01/02 01:20:08;;;;;;;210.65;127.85;;;6.50;99.90;;;;;;5079987;28;20032;-72
2024/01/02 01:22:36;;;;;;;184.95;111.88;;;6.40;99.90;;;;;;5074560;28;20087;-74
2024/01/02 01:25:04;;;;;;;181.00;110.28;;;6.20;99.90;;;;;;5077044;28;20066;-73
2024/01/02 01:27:31;;;;;;;190.88;111.03;;;6.40;99.90;;;;;;5076286;28;20032;-74
2024/01/02 01:29:58;;;;;;;189.77;108.50;;;6.40;99.90;;;;;;5078457;28;20434;-73
2024/01/02 01:32:27;;;;;;;193.75;111.43;;;6.40;99.90;;;;;;5079340;28;20107;-73
2024/01/02 01:34:55;;;;;;;179.90;107.95;;;6.30;99.90;;;;;;5078965;28;20040;-72
2024/01/02 01:37:25;;;;;;;169.38;103.47;;;6.40;99.90;;;;;;5080506;28;20033;-72
2024/01/02 01:39:52;;;;;;;161.32;97.53;;;6.40;99.90;;;;;;5073935;28;20036;-71
2024/01/02 01:42:19;;;;;;;156.30;96.05;;;6.30;99.90;;;;;;5076116;28;20043;-73
2024/01/02 01:44:47;;;;;;;161.75;95.53;;;6.40;99.90;;;;;;5078996;28;20457;-72
2024/01/02 01:47:14;;;;;;;154.88;93.20;;;6.40;99.90;;;;;;5077236;28;20032;-73
2024/01/02 01:49:42;;;;;;;153.38;85.88;;;6.40;99.90;;;;;;5080802;28;20047;-72
2024/01/02 01:52:11;;;;;;;143.95;83.30;;;6.40;99.90;;;;;;5078847;28;20079;-71
2024/01/02 01:54:38;;;;;;;157.93;94.50;;;6.40;99.90;;;;;;5072165;28;20050;-73
2024/01/02 01:57:06;;;;;;;145.20;87.90;;;6.40;99.90;;;;;;5076573;28;20119;-72
2024/01/02 01:59:33;;;;;;;126.05;75.28;;;6.50;99.90;;;;;;5076352;28;20028;-73
2024/01/02 02:02:01;;;;;;;132.43;76.57;;;6.50;99.90;;;;;;5076745;28;20042;-73
2024/01/02 02:04:31;;;;;;;137.73;82.03;;;6.50;99.90;;;;;;5079079;28;20419;-72
2024/01/02 02:06:59;;;;;;;144.05;89.10;;;6.60;99.90;;;;;;5077061;28;20032;-73
2024/01/02 02:09:26;;;;;;;148.60;92.05;;;6.60;99.90;;;;;;5078833;28;20119;-72
2024/01/02 02:11:54;;;;;;;153.77;95.88;;;6.60;99.90;;;;;;5077247;28;20036;-73
2024/01/02 02:14:21;;;;;;;166.60;97.78;;;6.60;99.90;;;;;;5079357;28;20028;-73
2024/01/02 02:16:49;;;;;;;157.13;96.70;;;6.70;99.90;;;;;;5077397;28;20036;-74
2024/01/02 02:19:17;;;;;;;173.68;102.82;;;6.70;99.90;;;;;;5074646;28;20033;-73
2024/01/02 02:21:46;;;;;;;178.35;104.03;;;6.60;99.90;;;;;;5068378;28;20410;-74
2024/01/02 02:24:14;;;;;;;157.73;95.30;;;6.50;99.90;;;;;;5080110;28;20027;-72
2024/01/02 02:26:41;;;;;;;145.52;87.95;;;6.60;99.90;;;;;;5077623;28;20067;-72
2024/01/02 02:29:09;;;;;;;138.40;86.45;;;6.70;99.90;;;;;;5081753;28;20036;-73
2024/01/02 02:31:36;;;;;;;137.43;84.78;;;6.70;99.90;;;;;;5078742;28;20036;-72
2024/01/02 02:34:03;;;;;;;136.80;85.32;;;6.70;99.90;;;;;;5075986;28;20502;-72
2024/01/02 02:36:31;;;;;;;140.95;85.72;;;6.80;99.90;;;;;;5077477;28;20622;-73
2024/01/02 02:38:58;;;;;;;142.07;84.22;;;6.70;99.90;;;;;;5076396;28;20056;-72
2024/01/02 02:41:25;;;;;;;138.98;88.28;;;6.60;99.90;;;;;;5083691;28;20042;-73
2024/01/02 02:43:53;;;;;;;145.70;86.43;;;6.50;99.90;;;;;;5074376;28;20025;-72
2024/01/02 02:46:20;;;;;;;150.07;86.90;;;6.50;99.90;;;;;;5081754;28;20036;-73
2024/01/02 02:48:47;;;;;;;157.43;91.38;;;6.40;99.90;;;;;;5078800;28;20033;-73
2024/01/02 02:51:15;;;;;;;142.75;85.10;;;6.40;99.90;;;;;;5078831;28;20043;-71
2024/01/02 02:53:42;;;;;;;133.38;81.00;;;6.40;99.90;;;;;;5078221;28;20028;-73
2024/01/02 02:56:16;;;;;;;124.03;74.18;;;6.40;99.90;;;;;;5079602;28;20035;-73
2024/01/02 02:58:44;;;;;;;113.78;69.95;;;6.40;99.90;;;;;;5075206;28;20033;-75
2024/01/02 03:01:21;;;;;;;126.25;74.03;;;6.40;99.90;;;;;;5078662;28;20856;-72
2024/01/02 03:03:48;;;;;;;126.22;76.38;;;6.40;99.90;;;;;;5078390;28;20089;-70
2024/01/02 03:06:16;;;;;;;139.07;78.85;;;6.40;99.90;;;;;;5078475;28;20085;-71
2024/01/02 03:08:43;;;;;;;135.32;78.80;;;6.30;99.90;;;;;;5075002;28;20086;-72
2024/01/02 03:11:11;;;;;;;135.52;82.20;;;6.40;99.90;;;;;;5077957;28;20028;-73
2024/01/02 03:13:38;;;;;;;143.50;82.32;;;6.40;99.90;;;;;;5076723;28;20040;-72
2024/01/02 03:16:09;;;;;;;135.32;83.22;;;6.40;99.90;;;;;;5071737;28;20059;-73
2024/01/02 03:18:36;;;;;;;137.75;81.95;;;6.40;99.90;;;;;;5075247;28;20081;-73
2024/01/02 03:21:05;;;;;;;134.27;82.40;;;6.30;99.90;;;;;;5074686;28;20036;-71
2024/01/02 03:23:33;;;;;;;133.15;80.07;;;6.40;99.90;;;;;;5073674;28;20066;-71
2024/01/02 03:26:01;;;;;;;123.65;74.85;;;6.40;99.90;;;;;;5075673;28;20032;-72
2024/01/02 03:28:28;;;;;;;115.47;72.57;;;6.30;99.90;;;;;;5073803;28;20086;-72
2024/01/02 03:30:55;;;;;;;116.53;71.53;;;6.30;99.90;;;;;;5071768;28;20064;-72
2024/01/02 03:33:23;;;;;;;119.15;71.85;;;6.30;99.90;;;;;;5076650;28;20112;-72
2024/01/02 03:35:50;;;;;;;116.68;72.40;;;5.90;99.90;;;;;;5080804;28;20040;-71
2024/01/02 03:38:17;;;;;;;124.15;73.50;;;6.00;99.90;;;;;;5078640;28;20028;-71
2024/01/02 03:40:45;;;;;;;123.65;75.35;;;5.70;99.90;;;;;;5080858;28;20047;-71
2024/01/02 03:43:12;;;;;;;121.50;76.40;;;5.70;99.90;;;;;;5083302;28;20090;-71
2024/01/02 03:45:39;;;;;;;129.68;74.25;;;5.80;99.90;;;;;;5082007;28;20094;-72
2024/01/02 03:48:06;;;;;;;129.35;77.28;;;5.60;99.90;;;;;;5080962;28;20404;-72
2024/01/02 03:50:34;;;;;;;130.88;77.55;;;5.50;99.90;;;;;;5072867;28;20037;-72
2024/01/02 03:53:02;;;;;;;129.98;77.15;;;5.60;99.90;;;;;;5078450;28;20530;-72
2024/01/02 03:55:29;;;;;;;129.38;78.30;;;5.50;99.90;;;;;;5080650;28;20040;-72
2024/01/02 03:57:56;;;;;;;129.57;74.95;;;5.40;99.90;;;;;;5083405;28;20563;-72
2024/01/02 04:00:24;;;;;;;125.45;74.70;;;5.30;99.90;;;;;;5084375;28;20059;-71
2024/01/02 04:02:51;;;;;;;125.70;73.05;;;5.40;99.90;;;;;;5082489;28;20417;-71
2024/01/02 04:05:19;;;;;;;132.40;76.95;;;5.70;99.90;;;;;;5082893;28;20356;-72
2024/01/02 04:07:47;;;;;;;125.55;74.57;;;5.90;99.90;;;;;;5074029;28;20498;-72
2024/01/02 04:10:14;;;;;;;127.97;74.70;;;6.10;99.90;;;;;;5079607;28;20395;-72
2024/01/02 04:12:41;;;;;;;122.88;74.63;;;6.20;99.90;;;;;;5081075;28;20452;-72
2024/01/02 04:15:08;;;;;;;135.75;79.03;;;6.40;99.90;;;;;;5079939;28;20079;-71
2024/01/02 04:17:36;;;;;;;136.48;82.47;;;6.30;99.90;;;;;;5075788;28;20045;-71
2024/01/02 04:20:04;;;;;;;137.85;83.85;;;6.10;99.90;;;;;;5084366;28;20039;-73
2024/01/02 04:22:31;;;;;;;127.82;78.97;;;5.90;99.90;;;;;;5080888;28;20033;-71
2024/01/02 04:24:58;;;;;;;125.65;78.07;;;5.80;99.90;;;;;;5078399;28;20054;-71
2024/01/02 04:27:26;;;;;;;127.93;74.32;;;5.80;99.90;;;;;;5081648;28;20086;-73
2024/01/02 04:29:53;;;;;;;120.07;71.50;;;5.70;99.90;;;;;;5081625;28;20062;-72
2024/01/02 04:32:20;;;;;;;107.75;61.40;;;5.70;99.90;;;;;;5079718;28;20032;-71
2024/01/02 04:34:48;;;;;;;109.20;63.85;;;5.90;99.90;;;;;;5082978;28;20110;-71
2024/01/02 04:37:15;;;;;;;103.88;61.13;;;6.00;99.90;;;;;;5081396;28;20032;-71
2024/01/02 04:39:42;;;;;;;103.10;63.45;;;6.10;99.90;;;;;;5078515;28;20033;-71
2024/01/02 04:42:09;;;;;;;107.97;64.18;;;6.40;99.90;;;;;;5082857;28;20085;-71
2024/01/02 04:44:37;;;;;;;101.40;63.28;;;6.50;99.90;;;;;;5076040;28;20108;-71
2024/01/02 04:47:04;;;;;;;102.78;64.18;;;6.40;99.90;;;;;;5079321;28;20040;-72
2024/01/02 04:49:31;;;;;;;108.10;63.80;;;6.40;99.90;;;;;;5084435;28;20480;-71
2024/01/02 04:51:59;;;;;;;104.20;62.72;;;6.50;99.90;;;;;;5081533;28;20055;-70
2024/01/02 04:54:26;;;;;;;108.82;64.82;;;6.50;99.90;;;;;;5080214;28;20039;-72
2024/01/02 04:56:54;;;;;;;111.88;66.20;;;6.40;99.90;;;;;;5080781;28;20111;-73
2024/01/02 04:59:21;;;;;;;111.68;69.03;;;6.40;99.90;;;;;;5081663;28;20425;-73
2024/01/02 05:01:49;;;;;;;113.40;66.95;;;6.50;99.90;;;;;;5079419;28;20048;-72
2024/01/02 05:04:17;;;;;;;114.60;67.30;;;6.60;99.90;;;;;;5072219;28;20024;-72
2024/01/02 05:06:44;;;;;;;119.78;70.75;;;6.60;99.90;;;;;;5078895;28;20040;-72
2024/01/02 05:09:11;;;;;;;125.43;72.55;;;6.60;99.90;;;;;;5080198;28;20064;-72
2024/01/02 05:11:39;;;;;;;108.72;68.20;;;6.60;99.90;;;;;;5077561;28;20642;-72
2024/01/02 05:14:07;;;;;;;115.97;72.78;;;6.50;99.90;;;;;;5079405;28;20028;-72
2024/01/02 05:16:34;;;;;;;113.80;68.32;;;6.60;99.90;;;;;;5077249;28;20040;-72
2024/01/02 05:19:02;;;;;;;111.78;68.55;;;6.60;99.90;;;;;;5081107;28;20401;-72
2024/01/02 05:21:30;;;;;;;114.63;70.45;;;6.40;99.90;;;;;;5079032;28;20048;-71
2024/01/02 05:23:57;;;;;;;113.53;72.13;;;6.40;99.90;;;;;;5079305;28;20063;-72
2024/01/02 05:26:25;;;;;;;124.78;75.60;;;6.50;99.90;;;;;;5080775;28;20045;-73
2024/01/02 05:28:52;;;;;;;115.97;73.93;;;6.60;99.90;;;;;;5080347;28;20406;-73
2024/01/02 05:31:20;;;;;;;116.82;73.97;;;6.50;99.90;;;;;;5078250;28;20063;-73
2024/01/02 05:33:47;;;;;;;120.07;73.50;;;6.60;99.90;;;;;;5081009;28;20391;-73
2024/01/02 05:36:14;;;;;;;119.90;72.95;;;6.60;99.90;;;;;;5084488;28;20036;-74
2024/01/02 05:38:42;;;;;;;118.82;74.10;;;6.60;99.90;;;;;;5078947;28;20384;-73
2024/01/02 05:41:09;;;;;;;126.18;76.05;;;6.50;99.90;;;;;;5078089;28;20051;-73
2024/01/02 05:43:37;;;;;;;122.30;74.43;;;6.40;99.90;;;;;;5078792;28;20028;-73
2024/01/02 05:46:04;;;;;;;118.63;75.07;;;6.40;99.90;;;;;;5077771;28;20035;-73
2024/01/02 05:48:31;;;;;;;122.70;78.63;;;6.50;99.90;;;;;;5075298;28;20036;-73
2024/01/02 05:50:59;;;;;;;119.13;76.20;;;6.30;99.90;;;;;;5082425;28;20486;-73
2024/01/02 05:53:26;;;;;;;118.75;74.03;;;6.30;99.90;;;;;;5080246;28;20032;-73
2024/01/02 05:55:53;;;;;;;122.63;76.78;;;6.40;99.90;;;;;;5077012;28;20061;-73
2024/01/02 05:58:20;;;;;;;126.28;79.82;;;6.40;99.90;;;;;;5080511;28;20075;-71
2024/01/02 06:00:48;;;;;;;121.90;73.45;;;6.40;99.90;;;;;;5077366;28;20059;-72
2024/01/02 06:03:15;;;;;;;118.35;72.20;;;6.30;99.90;;;;;;5078717;28;20033;-72
2024/01/02 06:05:42;;;;;;;124.25;75.53;;;6.40;99.90;;;;;;5078981;28;20041;-73
2024/01/02 06:08:10;;;;;;;138.57;82.68;;;6.50;99.90;;;;;;5076968;28;20063;-72
2024/01/02 06:10:38;;;;;;;127.07;74.55;;;6.50;99.90;;;;;;5073674;28;20056;-72
2024/01/02 06:13:07;;;;;;;108.72;69.60;;;6.30;99.90;;;;;;5079162;28;20120;-72
2024/01/02 06:15:34;;;;;;;114.38;71.45;;;6.30;99.90;;;;;;5081458;28;20086;-72
2024/01/02 06:18:02;;;;;;;112.40;71.93;;;6.30;99.90;;;;;;5077543;28;20450;-72
2024/01/02 06:20:30;;;;;;;112.38;71.22;;;6.30;99.90;;;;;;5071950;28;20093;-76
2024/01/02 06:22:58;;;;;;;114.35;70.30;;;6.40;99.90;;;;;;5075835;28;20468;-71
2024/01/02 06:25:25;;;;;;;115.57;69.45;;;6.30;99.90;;;;;;5077960;28;20036;-73
2024/01/02 06:27:52;;;;;;;116.22;68.05;;;6.40;99.90;;;;;;5075981;28;20075;-75
2024/01/02 06:30:22;;;;;;;127.47;78.63;;;6.40;99.90;;;;;;5078381;28;20032;-73
2024/01/02 06:32:50;;;;;;;191.75;104.38;;;6.60;99.90;;;;;;5077500;28;20032;-74
2024/01/02 06:35:18;;;;;;;182.98;104.38;;;6.60;99.90;;;;;;5076770;28;20119;-74
2024/01/02 06:37:45;;;;;;;131.48;82.68;;;6.30;99.90;;;;;;5077396;28;20090;-73
2024/01/02 06:40:13;;;;;;;157.15;95.20;;;6.10;99.90;;;;;;5076893;28;20510;-74
2024/01/02 06:42:41;;;;;;;122.93;78.82;;;6.10;99.90;;;;;;5076978;28;20508;-76
2024/01/02 06:45:09;;;;;;;123.13;74.03;;;6.10;99.90;;;;;;5071519;28;20037;-74
2024/01/02 06:47:37;;;;;;;158.63;89.43;;;6.10;99.90;;;;;;5074284;28;20103;-75
2024/01/02 06:50:05;;;;;;;134.77;78.70;;;6.40;99.90;;;;;;5079473;28;20492;-76
2024/01/02 06:52:32;;;;;;;121.72;75.60;;;6.50;99.90;;;;;;5075914;28;21358;-76
2024/01/02 06:55:00;;;;;;;126.70;76.65;;;6.30;99.90;;;;;;5075646;28;20024;-75
2024/01/02 06:57:27;;;;;;;126.07;75.45;;;6.10;99.90;;;;;;5079474;28;20376;-76
2024/01/02 06:59:54;;;;;;;126.03;76.03;;;6.00;99.90;;;;;;5076496;28;20040;-76
2024/01/02 07:02:22;;;;;;;118.18;74.63;;;6.10;99.90;;;;;;5072477;28;20120;-73
2024/01/02 07:04:49;;;;;;;128.05;76.93;;;6.20;99.90;;;;;;5077919;28;20370;-72
2024/01/02 07:07:17;;;;;;;118.60;73.15;;;6.30;99.90;;;;;;5077378;28;20097;-73
2024/01/02 07:09:44;;;;;;;119.70;74.75;;;6.30;99.90;;;;;;5071730;28;20125;-73
2024/01/02 07:12:11;;;;;;;123.43;78.03;;;6.20;99.90;;;;;;5077787;28;20374;-73
2024/01/02 07:14:40;;;;;;;122.50;74.45;;;6.20;99.90;;;;;;5082784;28;20068;-73
2024/01/02 07:17:07;;;;;;;128.82;78.68;;;6.20;99.90;;;;;;5081836;28;20379;-72
2024/01/02 07:19:35;;;;;;;121.47;73.85;;;6.20;99.90;;;;;;5077610;28;20123;-75
2024/01/02 07:22:02;;;;;;;120.35;75.70;;;6.30;99.90;;;;;;5084590;28;20036;-74
2024/01/02 07:24:31;;;;;;;115.93;71.07;;;6.30;99.90;;;;;;5079507;28;20035;-74
2024/01/02 07:26:58;;;;;;;133.00;74.25;;;6.50;99.90;;;;;;5081860;28;20040;-74
2024/01/02 07:29:26;;;;;;;128.80;71.53;;;6.60;99.90;;;;;;5080599;28;20535;-74
2024/01/02 07:31:53;;;;;;;141.63;74.90;;;6.50;99.90;;;;;;5080702;28;20044;-74
2024/01/02 07:34:20;;;;;;;134.20;72.05;;;6.60;99.90;;;;;;5081478;28;20040;-74
2024/01/02 07:36:48;;;;;;;126.50;73.50;;;6.80;99.90;;;;;;5077902;28;20029;-74
2024/01/02 07:39:15;;;;;;;118.90;71.40;;;6.90;99.90;;;;;;5059365;28;20056;-74
2024/01/02 07:41:43;;;;;;;116.88;70.22;;;6.90;99.90;;;;;;5080099;28;20119;-75
2024/01/02 07:44:10;;;;;;;116.55;70.43;;;6.90;99.90;;;;;;5093720;28;20040;-74
2024/01/02 07:46:38;;;;;;;117.82;72.82;;;7.00;99.90;;;;;;5078073;28;20399;-74
2024/01/02 07:49:05;;;;;;;126.95;74.10;;;7.00;99.90;;;;;;5079339;28;20108;-74
2024/01/02 07:51:33;;;;;;;114.20;73.60;;;7.20;99.90;;;;;;5082166;28;20032;-74
2024/01/02 07:54:01;;;;;;;122.78;72.25;;;7.30;99.90;;;;;;5082936;28;20045;-75
2024/01/02 07:56:30;;;;;;;112.95;71.50;;;7.30;99.90;;;;;;5080900;28;20032;-75
2024/01/02 07:58:57;;;;;;;113.00;72.15;;;7.20;99.90;;;;;;5081281;28;20395;-75
2024/01/02 08:01:25;;;;;;;115.60;73.13;;;7.20;99.90;;;;;;5081480;28;20044;-75
2024/01/02 08:03:53;;;;;;;119.18;71.57;;;7.30;99.90;;;;;;5080445;28;20460;-75
2024/01/02 08:06:20;;;;;;;117.97;76.28;;;7.30;99.90;;;;;;5082828;28;20060;-75
2024/01/02 08:08:48;;;;;;;137.02;84.40;;;7.30;99.90;;;;;;5083634;28;20111;-75
2024/01/02 08:11:15;;;;;;;136.30;80.60;;;7.30;99.90;;;;;;5080859;28;20045;-77
2024/01/02 08:13:42;;;;;;;140.50;83.28;;;7.20;99.90;;;;;;5084605;28;20040;-76
2024/01/02 08:16:10;;;;;;;137.55;81.82;;;7.30;99.90;;;;;;5071973;28;20045;-76
2024/01/02 08:18:41;;;;;;;141.32;86.82;;;7.40;99.90;;;;;;5078349;28;20089;-77
2024/01/02 08:21:09;;;;;;;139.07;86.25;;;7.50;99.90;;;;;;5064477;28;20467;-76
2024/01/02 08:23:38;;;;;;;131.80;84.47;;;7.50;99.90;;;;;;5079244;28;20119;-75
2024/01/02 08:26:12;;;;;;;130.50;82.72;;;7.50;99.90;;;;;;5076792;28;20365;-73
2024/01/02 08:28:40;;;;;;;123.45;76.40;;;7.40;99.90;;;;;;5079803;28;20055;-75
2024/01/02 08:31:07;;;;;;;117.85;77.30;;;7.50;99.90;;;;;;5076969;28;20095;-75
2024/01/02 08:33:35;;;;;;;115.65;72.78;;;7.50;99.90;;;;;;5078730;28;20040;-75
2024/01/02 08:36:02;;;;;;;110.90;71.82;;;7.50;99.90;;;;;;5079225;28;20036;-75
2024/01/02 08:38:29;;;;;;;111.85;70.18;;;7.50;99.90;;;;;;5081344;28;20032;-77
2024/01/02 08:40:57;;;;;;;105.93;69.88;;;7.60;99.90;;;;;;5078475;28;20032;-77
2024/01/02 08:43:24;;;;;;;105.38;65.80;;;7.60;99.90;;;;;;5082559;28;20115;-75
2024/01/02 08:45:51;;;;;;;106.93;69.10;;;7.60;99.90;;;;;;5078239;28;20032;-76
2024/01/02 08:48:19;;;;;;;102.75;67.80;;;7.50;99.90;;;;;;5080682;28;20119;-76
2024/01/02 08:50:46;;;;;;;106.18;67.38;;;7.50;99.90;;;;;;5081716;28;20387;-76
2024/01/02 08:53:14;;;;;;;115.57;70.90;;;7.60;99.90;;;;;;5082905;28;20114;-74
2024/01/02 08:55:41;;;;;;;113.80;74.32;;;7.60;99.90;;;;;;5073359;28;20044;-75
2024/01/02 08:58:09;;;;;;;114.03;72.25;;;7.60;99.90;;;;;;5082203;28;20082;-73
2024/01/02 09:00:36;;;;;;;106.63;71.18;;;7.40;99.90;;;;;;5082603;28;20056;-75
2024/01/02 09:03:05;;;;;;;108.78;69.93;;;7.40;99.90;;;;;;5079367;28;20043;-75
2024/01/02 09:05:33;;;;;;;109.13;67.60;;;7.40;99.90;;;;;;5082581;28;20037;-75
2024/01/02 09:08:00;;;;;;;108.03;69.00;;;7.40;99.90;;;;;;5082648;28;20361;-73
2024/01/02 09:10:28;;;;;;;105.63;70.68;;;7.50;99.90;;;;;;5078416;28;20047;-75
2024/01/02 09:12:55;;;;;;;98.45;64.00;;;7.60;99.90;;;;;;5078818;28;20071;-75
2024/01/02 09:15:23;;;;;;;103.90;65.05;;;7.60;99.90;;;;;;5081660;28;20119;-75
2024/01/02 09:17:50;;;;;;;102.45;66.22;;;7.60;99.90;;;;;;5078356;28;20428;-75
2024/01/02 09:20:18;;;;;;;103.18;67.85;;;7.70;99.90;;;;;;5082093;28;20230;-76
2024/01/02 09:22:45;;;;;;;95.88;64.13;;;7.80;99.90;;;;;;5082630;28;20394;-76
2024/01/02 09:25:15;;;;;;;104.22;66.97;;;7.90;99.90;;;;;;5079314;28;20422;-74
2024/01/02 09:27:43;;;;;;;103.57;67.10;;;8.00;99.90;;;;;;5076452;28;20048;-75
2024/01/02 09:30:14;;;;;;;101.53;63.83;;;8.10;99.90;;;;;;5079254;28;20463;-74
2024/01/02 09:32:42;;;;;;;105.93;65.25;;;8.10;99.90;;;;;;5074496;28;20394;-75
2024/01/02 09:35:10;;;;;;;97.75;64.05;;;8.20;99.90;;;;;;5063776;28;20063;-74
2024/01/02 09:37:37;;;;;;;96.20;59.95;;;8.40;99.90;;;;;;5081908;28;20041;-74
2024/01/02 09:40:18;;;;;;;97.43;61.20;;;8.60;99.90;;;;;;5078647;28;20051;-74
2024/01/02 09:42:45;;;;;;;;;;;8.70;99.90;;;;;;5080941;28;20032;-74
2024/01/02 09:45:24;;;;;;;98.97;64.22;;;8.80;99.90;;;;;;5081977;28;20009;-74
2024/01/02 09:48:12;;;;;;;105.32;63.28;;;9.00;99.90;;;;;;5076760;28;20111;-74
2024/01/02 09:50:51;;;;;;;96.55;64.78;;;9.00;99.90;;;;;;5078871;28;20119;-75
2024/01/02 09:53:31;;;;;;;101.15;63.67;;;9.10;99.90;;;;;;5075524;28;20029;-75
2024/01/02 09:56:07;;;;;;;101.45;63.83;;;9.00;99.90;;;;;;5079236;28;20690;-75
2024/01/02 09:58:47;;;;;;;99.18;63.92;;;9.10;99.90;;;;;;5079919;28;20039;-74
2024/01/02 10:01:20;;;;;;;100.78;65.82;;;9.20;99.90;;;;;;5080599;28;20490;-75
2024/01/02 10:03:47;;;;;;;105.32;66.50;;;9.50;99.90;;;;;;5072240;28;20048;-75
2024/01/02 10:06:44;;;;;;;102.53;62.45;;;9.80;99.90;;;;;;5080371;28;20024;-76
2024/01/02 10:09:48;;;;;;;90.95;60.85;;;10.20;99.90;;;;;;5073411;28;20046;-76
2024/01/02 10:13:06;;;;;;;94.95;64.53;;;10.60;99.90;;;;;;5070529;28;20035;-76
2024/01/02 10:15:46;;;;;;;91.93;58.35;;;10.80;99.90;;;;;;5065178;28;20068;-76
2024/01/02 10:18:33;;;;;;;90.15;58.38;;;10.90;99.90;;;;;;5070211;28;20481;-76
2024/01/02 10:21:03;;;;;;;90.13;59.22;;;10.90;99.90;;;;;;5078947;28;20048;-75
2024/01/02 10:23:39;;;;;;;87.72;56.58;;;10.70;99.90;;;;;;5080558;28;20062;-76
2024/01/02 10:26:12;;;;;;;75.70;51.13;;;10.60;99.90;;;;;;5076338;28;20044;-74
2024/01/02 10:28:42;;;;;;;68.82;46.22;;;10.90;99.90;;;;;;5078321;28;20044;-75
2024/01/02 10:31:19;;;;;;;74.07;47.40;;;11.10;99.90;;;;;;5077137;28;20093;-75
2024/01/02 10:33:50;;;;;;;65.00;40.97;;;11.50;99.90;;;;;;5073598;28;20048;-74
2024/01/02 10:36:22;;;;;;;57.90;39.47;;;11.70;99.90;;;;;;5078865;28;20035;-75
2024/01/02 10:39:04;;;;;;;42.92;32.83;;;11.90;99.90;;;;;;5074259;28;20119;-74
2024/01/02 10:41:43;;;;;;;44.17;28.90;;;11.80;99.90;;;;;;5078773;28;20032;-75
2024/01/02 10:44:32;;;;;;;38.67;26.20;;;11.80;99.90;;;;;;5078958;28;20532;-75
2024/01/02 10:47:08;;;;;;;26.90;20.00;;;12.30;99.90;;;;;;5072578;28;20032;-74
2024/01/02 10:49:35;;;;;;;30.80;19.52;;;13.00;99.90;;;;;;5076986;28;20376;-75
2024/01/02 10:52:09;;;;;;;25.95;18.38;;;13.40;99.90;;;;;;5079525;28;20068;-74
2024/01/02 10:54:45;;;;;;;27.85;19.63;;;13.80;99.90;;;;;;5079689;28;20435;-75
2024/01/02 10:57:24;;;;;;;31.40;19.20;;;13.20;99.90;;;;;;5075538;28;20043;-74
2024/01/02 11:00:08;;;;;;;29.60;19.55;;;12.80;99.90;;;;;;5074753;28;20070;-75
2024/01/02 11:02:44;;;;;;;29.05;19.38;;;12.70;99.90;;;;;;5071138;28;20040;-74
2024/01/02 11:05:24;;;;;;;27.50;19.13;;;12.70;99.90;;;;;;5073567;28;20482;-75
2024/01/02 11:08:05;;;;;;;28.75;20.05;;;12.30;99.90;;;;;;5072820;28;20075;-75
2024/01/02 11:10:40;;;;;;;25.65;18.48;;;12.10;99.90;;;;;;5074756;28;20033;-75
2024/01/02 11:13:09;;;;;;;24.10;18.83;;;12.10;99.90;;;;;;5073912;28;20050;-76
2024/01/02 11:15:45;;;;;;;23.08;16.92;;;12.10;99.90;;;;;;5070470;28;20052;-74
2024/01/02 11:18:16;;;;;;;22.70;15.70;;;12.20;99.90;;;;;;5070737;28;20375;-74
2024/01/02 11:21:03;;;;;;;21.98;14.85;;;12.10;99.90;;;;;;5071951;28;20333;-74
2024/01/02 11:23:37;;;;;;;22.45;14.65;;;12.20;99.90;;;;;;5073991;28;20067;-75
2024/01/02 11:26:14;;;;;;;22.13;15.15;;;12.40;99.90;;;;;;5070970;28;20028;-75
2024/01/02 11:29:03;;;;;;;21.90;15.05;;;12.60;99.90;;;;;;5073954;28;20133;-74
2024/01/02 11:31:31;;;;;;;20.58;14.68;;;13.50;99.90;;;;;;5071574;28;20032;-75
2024/01/02 11:34:23;;;;;;;20.52;14.73;;;15.00;99.90;;;;;;5075735;28;20345;-75
2024/01/02 11:37:28;;;;;;;19.30;13.07;;;16.40;96.40;;;;;;5072058;28;20464;-75
2024/01/02 11:40:13;;;;;;;17.17;13.15;;;15.50;96.50;;;;;;5071799;28;20033;-75
2024/01/02 11:42:57;;;;;;;19.02;12.90;;;14.60;97.90;;;;;;5079618;28;20034;-74
2024/01/02 11:45:32;;;;;;;21.70;13.40;;;14.50;98.30;;;;;;5070352;28;20130;-76
2024/01/02 11:48:06;;;;;;;17.77;12.95;;;14.70;98.20;;;;;;5072835;28;20470;-73
2024/01/02 11:50:57;;;;;;;19.67;13.15;;;14.90;97.70;;;;;;5076155;28;20388;-74
2024/01/02 11:53:49;;;;;;;17.65;11.77;;;15.20;97.30;;;;;;5079568;28;20041;-74
2024/01/02 11:56:18;;;;;;;19.52;12.75;;;14.70;97.40;;;;;;5073835;28;20125;-74
2024/01/02 11:59:11;;;;;;;22.95;14.88;;;14.00;98.20;;;;;;5071851;28;20036;-74
2024/01/02 12:01:53;;;;;;;21.58;14.45;;;13.60;99.20;;;;;;5083209;28;20094;-76
2024/01/02 12:04:48;;;;;;;19.90;13.85;;;12.80;99.90;;;;;;5074820;28;20036;-74
2024/01/02 12:07:24;;;;;;;22.92;15.55;;;13.30;99.90;;;;;;5076046;28;20111;-75
2024/01/02 12:09:52;;;;;;;22.45;15.02;;;13.80;99.90;;;;;;5077247;28;20039;-74
2024/01/02 12:12:44;;;;;;;24.77;15.10;;;15.10;98.30;;;;;;5079321;28;20041;-75
2024/01/02 12:15:51;;;;;;;27.80;17.67;;;18.90;95.80;;;;;;5080338;28;20094;-75
2024/01/02 12:18:26;;;;;;;24.33;16.27;;;20.80;90.10;;;;;;5077733;28;20032;-74
2024/01/02 12:20:57;;;;;;;24.35;16.05;;;18.20;91.30;;;;;;5081629;28;20034;-72
2024/01/02 12:23:26;;;;;;;24.25;16.23;;;16.50;93.70;;;;;;5075022;28;20152;-76
2024/01/02 12:26:01;;;;;;;26.95;16.67;;;15.80;94.70;;;;;;5078753;28;20044;-72
2024/01/02 12:28:31;;;;;;;22.58;15.85;;;15.20;95.40;;;;;;5079644;28;20601;-74
2024/01/02 12:31:20;;;;;;;27.13;17.45;;;14.80;95.90;;;;;;5075939;28;20076;-73
2024/01/02 12:34:03;;;;;;;24.85;15.25;;;14.70;96.60;;;;;;5078052;28;20067;-73
2024/01/02 12:36:56;;;;;;;23.75;15.68;;;14.80;96.50;;;;;;5081452;28;20040;-73
2024/01/02 12:39:26;;;;;;;28.83;16.95;;;15.30;95.10;;;;;;5055922;28;20040;-75
2024/01/02 12:41:55;;;;;;;26.65;17.08;;;14.20;96.50;;;;;;5079335;28;20044;-75